createdAt,value
2023-03-18T00:00:23.467Z,11.57
2023-03-18T00:02:49.861Z,8.65
2023-03-18T00:05:16.438Z,9.98
2023-03-18T00:07:42.841Z,7.75
2023-03-18T00:10:11.865Z,8.77
2023-03-18T00:12:40.251Z,12.55
2023-03-18T00:15:09.625Z,6.90
2023-03-18T00:17:37.834Z,7.88
2023-03-18T00:20:09.697Z,8.65
2023-03-18T00:22:37.790Z,11.43
2023-03-18T00:25:07.015Z,7.53
2023-03-18T00:27:34.709Z,11.90
2023-03-18T00:30:01.869Z,13.07
2023-03-18T00:32:28.945Z,11.80
2023-03-18T00:34:56.793Z,9.57
2023-03-18T00:37:30.393Z,9.43
2023-03-18T00:40:06.441Z,11.73
2023-03-18T00:42:39.819Z,9.48
2023-03-18T00:45:08.319Z,10.43
2023-03-18T00:47:35.757Z,8.37
2023-03-18T00:50:03.179Z,13.90
2023-03-18T00:52:32.017Z,11.05
2023-03-18T00:54:58.527Z,12.65
2023-03-18T00:57:25.181Z,14.75
2023-03-18T00:59:51.746Z,15.73
2023-03-18T01:02:18.335Z,11.10
2023-03-18T01:04:45.402Z,11.25
2023-03-18T01:07:12.379Z,16.27
2023-03-18T01:09:40.637Z,10.80
2023-03-18T01:12:08.728Z,11.93
2023-03-18T01:14:36.489Z,11.77
2023-03-18T01:17:04.261Z,14.38
2023-03-18T01:19:30.665Z,15.15
2023-03-18T01:21:57.035Z,10.27
2023-03-18T01:24:23.366Z,10.07
2023-03-18T01:26:50.469Z,8.20
2023-03-18T01:29:17.683Z,9.25
2023-03-18T01:31:44.043Z,12.45
2023-03-18T01:34:10.475Z,14.50
2023-03-18T01:36:36.790Z,10.80
2023-03-18T01:39:03.271Z,10.52
2023-03-18T01:41:30.183Z,13.85
2023-03-18T01:43:56.509Z,10.88
2023-03-18T01:46:41.058Z,9.65
2023-03-18T01:49:15.643Z,11.40
2023-03-18T01:51:46.249Z,10.23
2023-03-18T01:54:14.143Z,9.40
2023-03-18T01:56:43.924Z,11.15
2023-03-18T01:59:11.299Z,9.68
2023-03-18T02:01:50.168Z,11.00
2023-03-18T02:04:17.489Z,10.95
2023-03-18T02:06:44.063Z,12.35
2023-03-18T02:09:11.474Z,13.80
2023-03-18T02:11:42.621Z,14.30
2023-03-18T02:14:13.181Z,13.90
2023-03-18T02:16:55.849Z,12.38
2023-03-18T02:19:31.130Z,12.57
2023-03-18T02:22:25.716Z,12.80
2023-03-18T02:25:08.881Z,13.93
2023-03-18T02:27:39.850Z,10.87
2023-03-18T02:30:12.991Z,16.90
2023-03-18T02:32:41.234Z,11.70
2023-03-18T02:35:09.806Z,14.40
2023-03-18T02:37:36.531Z,15.55
2023-03-18T02:40:19.462Z,14.77
2023-03-18T02:42:47.741Z,11.98
2023-03-18T02:45:33.586Z,10.70
2023-03-18T02:48:02.690Z,15.57
2023-03-18T02:50:29.297Z,10.52
2023-03-18T02:52:56.695Z,15.00
2023-03-18T02:55:23.043Z,14.18
2023-03-18T02:57:49.366Z,14.15
2023-03-18T03:00:16.559Z,18.15
2023-03-18T03:02:43.054Z,16.52
2023-03-18T03:05:10.559Z,16.27
2023-03-18T03:07:36.964Z,16.27
2023-03-18T03:10:05.739Z,16.13
2023-03-18T03:12:32.553Z,15.82
2023-03-18T03:14:58.907Z,14.80
2023-03-18T03:17:25.326Z,13.27
2023-03-18T03:19:52.049Z,16.98
2023-03-18T03:22:18.614Z,16.77
2023-03-18T03:24:45.137Z,29.77
2023-03-18T03:27:12.408Z,14.80
2023-03-18T03:29:39.422Z,14.30
2023-03-18T03:32:05.870Z,19.25
2023-03-18T03:34:32.220Z,20.05
2023-03-18T03:36:58.856Z,15.88
2023-03-18T03:39:25.188Z,14.52
2023-03-18T03:41:52.773Z,19.83
2023-03-18T03:44:19.487Z,13.98
2023-03-18T03:46:46.156Z,16.98
2023-03-18T03:49:12.501Z,15.05
2023-03-18T03:51:38.918Z,16.30
2023-03-18T03:54:05.333Z,13.87
2023-03-18T03:56:31.972Z,18.13
2023-03-18T03:59:00.182Z,18.88
2023-03-18T04:01:27.190Z,16.25
2023-03-18T04:03:53.526Z,19.23
2023-03-18T04:06:19.990Z,14.70
2023-03-18T04:08:46.314Z,17.25
2023-03-18T04:11:12.845Z,17.27
2023-03-18T04:13:39.504Z,16.98
2023-03-18T04:16:06.300Z,18.65
2023-03-18T04:18:32.625Z,19.83
2023-03-18T04:20:59.016Z,17.95
2023-03-18T04:23:25.658Z,14.38
2023-03-18T04:25:51.968Z,15.57
2023-03-18T04:28:18.445Z,17.20
2023-03-18T04:30:44.821Z,16.47
2023-03-18T04:33:12.639Z,15.98
2023-03-18T04:35:39.102Z,15.48
2023-03-18T04:38:05.594Z,19.85
2023-03-18T04:40:32.733Z,18.52
2023-03-18T04:42:59.298Z,16.53
2023-03-18T04:45:25.801Z,24.42
2023-03-18T04:47:52.717Z,15.10
2023-03-18T04:50:19.149Z,18.02
2023-03-18T04:52:45.553Z,17.15
2023-03-18T04:55:14.129Z,16.00
2023-03-18T04:57:42.552Z,23.60
2023-03-18T05:00:12.448Z,14.55
2023-03-18T05:02:39.738Z,14.75
2023-03-18T05:05:07.653Z,11.50
2023-03-18T05:07:34.036Z,18.30
2023-03-18T05:10:00.401Z,17.63
2023-03-18T05:12:27.111Z,19.92
2023-03-18T05:14:53.521Z,15.75
2023-03-18T05:17:20.488Z,16.83
2023-03-18T05:19:48.723Z,13.87
2023-03-18T05:22:17.473Z,19.65
2023-03-18T05:24:45.909Z,19.10
2023-03-18T05:27:14.294Z,20.65
2023-03-18T05:29:41.773Z,19.23
2023-03-18T05:32:08.996Z,19.73
2023-03-18T05:34:39.790Z,18.75
2023-03-18T05:37:08.709Z,10.98
2023-03-18T05:39:35.993Z,18.30
2023-03-18T05:42:02.638Z,19.15
2023-03-18T05:44:29.389Z,15.80
2023-03-18T05:46:55.894Z,15.93
2023-03-18T05:49:23.226Z,20.38
2023-03-18T05:51:51.746Z,15.75
2023-03-18T05:54:19.897Z,16.13
2023-03-18T05:56:46.568Z,17.63
2023-03-18T05:59:14.179Z,15.70
2023-03-18T06:01:41.362Z,19.05
2023-03-18T06:04:08.926Z,20.35
2023-03-18T06:06:37.202Z,18.88
2023-03-18T06:09:03.981Z,19.00
2023-03-18T06:11:30.455Z,17.80
2023-03-18T06:13:56.808Z,21.38
2023-03-18T06:16:23.982Z,18.40
2023-03-18T06:18:50.700Z,17.55
2023-03-18T06:21:17.671Z,15.40
2023-03-18T06:23:44.983Z,13.00
2023-03-18T06:26:11.484Z,19.58
2023-03-18T06:28:37.832Z,18.40
2023-03-18T06:31:04.471Z,20.95
2023-03-18T06:33:31.036Z,17.13
2023-03-18T06:35:57.889Z,18.05
2023-03-18T06:38:24.250Z,17.98
2023-03-18T06:40:51.263Z,16.98
2023-03-18T06:43:17.578Z,18.17
2023-03-18T06:45:44.301Z,18.30
2023-03-18T06:48:11.849Z,21.30
2023-03-18T06:50:39.553Z,16.88
2023-03-18T06:53:07.214Z,16.48
2023-03-18T06:55:34.201Z,21.50
2023-03-18T06:58:00.784Z,24.83
2023-03-18T07:00:27.370Z,19.73
2023-03-18T07:02:53.945Z,19.65
2023-03-18T07:05:20.861Z,20.05
2023-03-18T07:07:48.399Z,17.98
2023-03-18T07:10:21.699Z,25.17
2023-03-18T07:12:48.964Z,17.95
2023-03-18T07:15:15.397Z,15.77
2023-03-18T07:17:41.850Z,18.88
2023-03-18T07:20:09.556Z,16.55
2023-03-18T07:22:37.311Z,15.57
2023-03-18T07:25:04.967Z,18.88
2023-03-18T07:27:31.366Z,18.85
2023-03-18T07:29:57.740Z,15.85
2023-03-18T07:32:24.104Z,18.30
2023-03-18T07:34:50.429Z,24.43
2023-03-18T07:37:16.911Z,19.05
2023-03-18T07:39:43.938Z,22.15
2023-03-18T07:42:11.269Z,18.02
2023-03-18T07:44:37.931Z,16.70
2023-03-18T07:47:04.411Z,16.00
2023-03-18T07:49:32.012Z,19.27
2023-03-18T07:51:58.486Z,15.23
2023-03-18T07:54:25.257Z,18.15
2023-03-18T07:56:52.112Z,14.93
2023-03-18T07:59:18.863Z,18.77
2023-03-18T08:01:47.399Z,21.00
2023-03-18T08:04:14.048Z,23.45
2023-03-18T08:06:40.421Z,20.23
2023-03-18T08:09:06.870Z,19.67
2023-03-18T08:11:33.451Z,19.70
2023-03-18T08:13:59.918Z,20.88
2023-03-18T08:16:27.156Z,22.80
2023-03-18T08:18:53.662Z,27.45
2023-03-18T08:21:20.326Z,15.18
2023-03-18T08:23:47.525Z,15.43
2023-03-18T08:26:13.901Z,16.45
2023-03-18T08:28:40.279Z,12.57
2023-03-18T08:31:06.931Z,14.60
2023-03-18T08:33:33.403Z,16.23
2023-03-18T08:36:00.209Z,15.33
2023-03-18T08:38:26.639Z,12.85
2023-03-18T08:40:52.971Z,20.10
2023-03-18T08:43:22.075Z,15.07
2023-03-18T08:45:54.782Z,13.20
2023-03-18T08:48:22.825Z,16.87
2023-03-18T08:50:49.507Z,14.57
2023-03-18T08:53:16.417Z,13.15
2023-03-18T08:55:43.052Z,17.02
2023-03-18T08:58:09.587Z,15.85
2023-03-18T09:00:38.602Z,15.40
2023-03-18T09:03:05.490Z,14.85
2023-03-18T09:05:33.416Z,13.30
2023-03-18T09:08:00.303Z,12.65
2023-03-18T09:10:27.372Z,16.58
2023-03-18T09:12:53.734Z,16.40
2023-03-18T09:15:22.753Z,16.58
2023-03-18T09:18:03.825Z,12.93
2023-03-18T09:20:34.956Z,15.88
2023-03-18T09:23:02.215Z,12.88
2023-03-18T09:25:28.526Z,15.87
2023-03-18T09:27:54.891Z,16.77
2023-03-18T09:30:21.268Z,14.43
2023-03-18T09:32:47.675Z,13.07
2023-03-18T09:35:14.621Z,14.82
2023-03-18T09:37:41.011Z,16.23
2023-03-18T09:40:08.579Z,16.25
2023-03-18T09:42:56.580Z,12.70
2023-03-18T09:46:05.536Z,12.27
2023-03-18T09:48:52.983Z,14.98
2023-03-18T09:51:47.172Z,14.03
2023-03-18T09:54:20.963Z,13.80
2023-03-18T09:56:47.375Z,14.68
2023-03-18T09:59:19.973Z,15.88
2023-03-18T10:01:49.147Z,13.38
2023-03-18T10:04:18.410Z,12.60
2023-03-18T10:06:47.137Z,12.18
2023-03-18T10:09:39.809Z,12.45
2023-03-18T10:12:17.797Z,16.15
2023-03-18T10:15:04.219Z,9.50
2023-03-18T10:17:37.242Z,11.40
2023-03-18T10:20:15.489Z,12.02
2023-03-18T10:23:17.244Z,10.05
2023-03-18T10:25:55.951Z,9.68
2023-03-18T10:29:01.488Z,10.23
2023-03-18T10:31:52.838Z,11.47
2023-03-18T10:34:22.629Z,9.48
2023-03-18T10:37:05.734Z,9.65
2023-03-18T10:39:34.972Z,8.80
2023-03-18T10:42:23.801Z,8.48
2023-03-18T10:44:52.250Z,9.37
2023-03-18T10:47:23.329Z,7.68
2023-03-18T10:50:18.983Z,7.03
2023-03-18T10:53:07.022Z,6.25
2023-03-18T10:55:40.106Z,7.95
2023-03-18T10:58:16.162Z,7.10
2023-03-18T11:00:44.385Z,5.63
2023-03-18T11:03:22.288Z,5.97
2023-03-18T11:05:50.343Z,7.70
2023-03-18T11:08:46.542Z,7.63
2023-03-18T11:11:33.174Z,7.33
2023-03-18T11:14:02.339Z,6.93
2023-03-18T11:16:46.632Z,9.38
2023-03-18T11:19:38.460Z,6.13
2023-03-18T11:22:07.984Z,9.02
2023-03-18T11:24:39.607Z,5.87
2023-03-18T11:27:25.137Z,8.27
2023-03-18T11:30:00.217Z,12.13
2023-03-18T11:32:34.083Z,7.28
2023-03-18T11:35:02.618Z,8.15
2023-03-18T11:37:40.006Z,7.83
2023-03-18T11:40:28.066Z,9.10
2023-03-18T11:43:04.520Z,6.85
2023-03-18T11:45:47.006Z,7.88
2023-03-18T11:48:32.505Z,7.53
2023-03-18T11:51:24.169Z,9.17
2023-03-18T11:54:05.534Z,7.82
2023-03-18T11:56:53.896Z,7.00
2023-03-18T11:59:27.848Z,7.05
2023-03-18T12:02:16.806Z,7.20
2023-03-18T12:05:13.828Z,6.70
2023-03-18T12:07:55.470Z,9.75
2023-03-18T12:10:51.092Z,6.63
2023-03-18T12:13:23.040Z,7.13
2023-03-18T12:16:13.096Z,6.72
2023-03-18T12:19:25.528Z,6.17
2023-03-18T12:22:18.127Z,7.43
2023-03-18T12:25:22.497Z,6.78
2023-03-18T12:27:52.402Z,7.38
2023-03-18T12:31:02.410Z,7.93
2023-03-18T12:33:42.993Z,7.77
2023-03-18T12:36:23.516Z,5.15
2023-03-18T12:39:08.432Z,6.30
2023-03-18T12:41:57.675Z,6.75
2023-03-18T12:45:02.888Z,7.72
2023-03-18T12:47:38.799Z,6.07
2023-03-18T12:50:15.289Z,6.03
2023-03-18T12:52:48.209Z,8.07
2023-03-18T12:55:29.324Z,6.85
2023-03-18T12:58:07.400Z,9.55
2023-03-18T13:00:39.986Z,6.17
2023-03-18T13:03:26.596Z,3.88
2023-03-18T13:05:58.554Z,5.70
2023-03-18T13:08:46.401Z,6.22
2023-03-18T13:11:44.665Z,11.75
2023-03-18T13:14:29.310Z,6.70
2023-03-18T13:16:58.330Z,9.65
2023-03-18T13:19:25.510Z,7.32
2023-03-18T13:22:09.887Z,8.48
2023-03-18T13:24:49.076Z,8.48
2023-03-18T13:27:21.256Z,5.73
2023-03-18T13:30:03.749Z,5.53
2023-03-18T13:32:36.308Z,5.03
2023-03-18T13:35:32.367Z,6.88
2023-03-18T13:38:14.590Z,6.63
2023-03-18T13:40:42.811Z,7.37
2023-03-18T13:43:15.878Z,7.40
2023-03-18T13:45:48.350Z,6.78
2023-03-18T13:48:18.639Z,5.97
2023-03-18T13:50:48.227Z,6.47
2023-03-18T13:53:29.403Z,7.93
2023-03-18T13:55:56.104Z,5.78
2023-03-18T13:58:29.890Z,4.38
2023-03-18T14:00:56.581Z,9.43
2023-03-18T14:03:53.024Z,3.75
2023-03-18T14:06:44.441Z,11.53
2023-03-18T14:09:29.055Z,4.47
2023-03-18T14:12:22.163Z,7.10
2023-03-18T14:14:48.439Z,6.28
2023-03-18T14:17:22.255Z,8.18
2023-03-18T14:19:53.269Z,6.87
2023-03-18T14:22:33.658Z,8.43
2023-03-18T14:25:18.203Z,6.47
2023-03-18T14:27:54.737Z,4.40
2023-03-18T14:30:32.384Z,6.70
2023-03-18T14:33:23.135Z,6.83
2023-03-18T14:35:57.817Z,5.00
2023-03-18T14:38:28.024Z,4.85
2023-03-18T14:40:56.699Z,5.30
2023-03-18T14:43:30.296Z,2.90
2023-03-18T14:46:01.725Z,2.93
2023-03-18T14:48:33.589Z,3.85
2023-03-18T14:51:16.969Z,3.10
2023-03-18T14:53:48.514Z,2.65
2023-03-18T14:56:24.234Z,4.60
2023-03-18T14:58:56.824Z,4.30
2023-03-18T15:01:37.830Z,3.97
2023-03-18T15:04:07.824Z,5.70
2023-03-18T15:06:35.276Z,9.20
2023-03-18T15:09:06.082Z,5.10
2023-03-18T15:11:41.202Z,7.83
2023-03-18T15:14:31.670Z,3.85
2023-03-18T15:17:05.280Z,4.63
2023-03-18T15:19:32.522Z,3.42
2023-03-18T15:22:04.480Z,3.40
2023-03-18T15:24:31.416Z,4.23
2023-03-18T15:27:04.037Z,3.22
2023-03-18T15:29:36.953Z,3.83
2023-03-18T15:32:15.840Z,3.60
2023-03-18T15:34:47.124Z,2.90
2023-03-18T15:37:41.583Z,3.67
2023-03-18T15:40:36.161Z,3.38
2023-03-18T15:43:08.426Z,2.85
2023-03-18T15:45:35.429Z,2.08
2023-03-18T15:48:23.539Z,1.95
2023-03-18T15:50:55.321Z,2.27
2023-03-18T15:53:44.489Z,2.92
2023-03-18T15:56:18.019Z,3.08
2023-03-18T15:58:45.054Z,2.30
2023-03-18T16:01:18.281Z,2.10
2023-03-18T16:03:46.608Z,2.73
2023-03-18T16:06:14.760Z,2.92
2023-03-18T16:08:41.591Z,2.13
2023-03-18T16:11:12.064Z,2.08
2023-03-18T16:13:39.388Z,10.23
2023-03-18T16:16:06.257Z,2.83
2023-03-18T16:18:33.015Z,2.85
2023-03-18T16:21:00.454Z,1.80
2023-03-18T16:23:27.139Z,2.85
2023-03-18T16:25:55.368Z,6.63
2023-03-18T16:28:24.791Z,5.30
2023-03-18T16:30:53.372Z,2.53
2023-03-18T16:33:20.999Z,3.42
2023-03-18T16:35:58.578Z,2.22
2023-03-18T16:38:25.898Z,2.67
2023-03-18T16:40:54.720Z,2.33
2023-03-18T16:43:31.358Z,1.98
2023-03-18T16:46:01.189Z,4.57
2023-03-18T16:48:27.822Z,3.08
2023-03-18T16:50:56.556Z,4.05
2023-03-18T16:53:28.517Z,3.03
2023-03-18T16:56:16.273Z,2.63
2023-03-18T16:58:42.904Z,2.47
2023-03-18T17:01:15.118Z,4.50
2023-03-18T17:03:41.567Z,1.55
2023-03-18T17:06:08.752Z,2.47
2023-03-18T17:08:36.663Z,3.65
2023-03-18T17:11:04.192Z,2.70
2023-03-18T17:13:34.196Z,2.05
2023-03-18T17:16:01.614Z,2.55
2023-03-18T17:18:28.095Z,2.43
2023-03-18T17:20:54.498Z,4.95
2023-03-18T17:23:23.727Z,3.55
2023-03-18T17:25:53.434Z,2.65
2023-03-18T17:28:28.713Z,2.83
2023-03-18T17:30:55.391Z,1.77
2023-03-18T17:33:28.980Z,2.70
2023-03-18T17:35:56.370Z,3.38
2023-03-18T17:38:22.803Z,4.97
2023-03-18T17:40:50.552Z,4.28
2023-03-18T17:43:33.654Z,2.53
2023-03-18T17:46:01.533Z,4.25
2023-03-18T17:48:30.245Z,3.97
2023-03-18T17:50:59.885Z,3.83
2023-03-18T17:53:27.514Z,5.88
2023-03-18T17:55:54.683Z,3.33
2023-03-18T17:58:23.442Z,4.97
2023-03-18T18:00:49.843Z,3.15
2023-03-18T18:03:37.716Z,4.38
2023-03-18T18:06:04.771Z,4.75
2023-03-18T18:08:31.650Z,4.87
2023-03-18T18:11:11.008Z,3.65
2023-03-18T18:13:37.339Z,4.80
2023-03-18T18:16:03.835Z,4.03
2023-03-18T18:18:30.659Z,4.47
2023-03-18T18:21:02.622Z,3.10
2023-03-18T18:23:34.604Z,3.05
2023-03-18T18:26:07.300Z,2.50
2023-03-18T18:28:36.375Z,2.90
2023-03-18T18:31:05.327Z,3.55
2023-03-18T18:33:33.422Z,3.23
2023-03-18T18:36:00.539Z,3.13
2023-03-18T18:38:27.210Z,2.92
2023-03-18T18:40:54.043Z,2.72
2023-03-18T18:43:21.580Z,2.88
2023-03-18T18:45:49.647Z,3.63
2023-03-18T18:48:17.872Z,2.70
2023-03-18T18:50:44.893Z,3.72
2023-03-18T18:53:18.331Z,4.50
2023-03-18T18:55:44.750Z,4.60
2023-03-18T18:58:28.538Z,5.73
2023-03-18T19:00:55.822Z,3.58
2023-03-18T19:03:24.271Z,5.32
2023-03-18T19:05:53.552Z,4.38
2023-03-18T19:08:26.687Z,5.00
2023-03-18T19:10:54.711Z,3.57
2023-03-18T19:13:21.026Z,5.20
2023-03-18T19:15:48.644Z,6.55
2023-03-18T19:18:19.591Z,6.93
2023-03-18T19:20:47.484Z,5.72
2023-03-18T19:23:16.643Z,8.27
2023-03-18T19:25:43.934Z,6.13
2023-03-18T19:28:16.735Z,9.75
2023-03-18T19:30:43.157Z,7.68
2023-03-18T19:33:15.302Z,13.25
2023-03-18T19:35:42.234Z,16.83
2023-03-18T19:38:16.975Z,24.88
2023-03-18T19:40:43.346Z,26.15
2023-03-18T19:43:15.775Z,19.10
2023-03-18T19:45:42.317Z,15.25
2023-03-18T19:48:15.974Z,20.23
2023-03-18T19:50:42.339Z,13.80
2023-03-18T19:53:13.463Z,3.85
2023-03-18T19:55:41.363Z,6.75
2023-03-18T19:58:19.295Z,4.22
2023-03-18T20:00:46.321Z,2.70
2023-03-18T20:03:16.573Z,2.95
2023-03-18T20:05:42.934Z,2.28
2023-03-18T20:08:09.377Z,2.53
2023-03-18T20:10:35.839Z,2.55
2023-03-18T20:13:02.324Z,2.23
2023-03-18T20:15:29.368Z,2.65
2023-03-18T20:17:58.023Z,1.15
2023-03-18T20:20:28.172Z,0.50
2023-03-18T20:22:59.303Z,0.80
2023-03-18T20:25:40.006Z,0.30
2023-03-18T20:28:11.676Z,0.73
2023-03-18T20:30:40.644Z,2.40
2023-03-18T20:33:08.265Z,1.45
2023-03-18T20:35:38.690Z,1.50
2023-03-18T20:38:22.225Z,0.40
2023-03-18T20:40:48.907Z,1.10
2023-03-18T20:43:16.797Z,2.67
2023-03-18T20:45:43.691Z,0.30
2023-03-18T20:48:10.807Z,0.25
2023-03-18T20:50:37.264Z,1.53
2023-03-18T20:53:05.938Z,0.50
2023-03-18T20:55:34.019Z,0.35
2023-03-18T20:58:00.920Z,0.10
2023-03-18T21:00:30.041Z,0.32
2023-03-18T21:02:58.568Z,0.53
2023-03-18T21:05:28.765Z,0.55
2023-03-18T21:07:55.207Z,0.43
2023-03-18T21:10:25.332Z,0.40
2023-03-18T21:12:52.044Z,1.63
2023-03-18T21:15:24.305Z,0.30
2023-03-18T21:17:50.819Z,0.30
2023-03-18T21:20:25.474Z,1.58
2023-03-18T21:22:52.964Z,0.28
2023-03-18T21:25:22.726Z,0.57
2023-03-18T21:27:49.887Z,0.40
2023-03-18T21:30:17.927Z,0.50
2023-03-18T21:32:45.081Z,0.73
2023-03-18T21:35:25.646Z,2.28
2023-03-18T21:37:52.824Z,2.13
2023-03-18T21:40:22.304Z,0.60
2023-03-18T21:42:50.292Z,0.63
2023-03-18T21:45:20.221Z,0.80
2023-03-18T21:47:47.522Z,0.90
2023-03-18T21:50:26.165Z,2.80
2023-03-18T21:52:54.154Z,1.23
2023-03-18T21:55:21.471Z,3.15
2023-03-18T21:57:49.204Z,1.40
2023-03-18T22:00:19.731Z,1.25
2023-03-18T22:02:47.178Z,3.80
2023-03-18T22:05:21.603Z,0.33
2023-03-18T22:07:48.261Z,1.05
2023-03-18T22:10:16.928Z,0.90
2023-03-18T22:12:44.165Z,3.00
2023-03-18T22:15:33.624Z,1.63
2023-03-18T22:18:00.544Z,0.47
2023-03-18T22:20:27.589Z,1.85
2023-03-18T22:22:54.338Z,1.05
2023-03-18T22:25:32.809Z,0.80
2023-03-18T22:28:00.155Z,1.45
2023-03-18T22:30:29.188Z,1.10
2023-03-18T22:32:57.190Z,1.30
2023-03-18T22:35:26.295Z,1.33
2023-03-18T22:37:53.390Z,1.00
2023-03-18T22:40:25.297Z,1.80
2023-03-18T22:42:54.728Z,1.80
2023-03-18T22:45:32.831Z,0.95
2023-03-18T22:48:01.999Z,2.60
2023-03-18T22:50:31.966Z,1.08
2023-03-18T22:53:05.873Z,2.13
2023-03-18T22:55:36.204Z,3.17
2023-03-18T22:58:02.757Z,2.67
2023-03-18T23:00:39.249Z,2.65
2023-03-18T23:03:14.911Z,1.70
2023-03-18T23:05:41.396Z,0.95
2023-03-18T23:08:07.864Z,2.70
2023-03-18T23:10:34.214Z,1.45
2023-03-18T23:13:00.692Z,4.10
2023-03-18T23:15:27.009Z,1.65
2023-03-18T23:17:53.349Z,1.58
2023-03-18T23:20:19.706Z,2.63
2023-03-18T23:22:46.200Z,4.35
2023-03-18T23:25:16.334Z,2.00
2023-03-18T23:27:42.690Z,2.58
2023-03-18T23:30:10.376Z,2.13
2023-03-18T23:32:37.247Z,3.50
2023-03-18T23:35:04.035Z,3.28
2023-03-18T23:37:31.430Z,3.63
2023-03-18T23:39:57.784Z,3.13
2023-03-18T23:42:24.135Z,1.42
2023-03-18T23:44:50.512Z,2.70
2023-03-18T23:47:16.910Z,1.63
2023-03-18T23:49:43.287Z,3.55
2023-03-18T23:52:12.249Z,1.92
2023-03-18T23:54:39.262Z,1.52
2023-03-18T23:57:08.065Z,2.70
2023-03-18T23:59:35.030Z,2.25
